DAL1432 KBOS-KDTW
Flight info
| Callsign | DAL1432 |
|---|---|
| Flight time | 1h 39m |
| Altitude | 36000 |
| Route | HYLND7 HYLND CAM Q822 GONZZ DONEO TPGUN2 |
| Aircraft | A321/M-SDE3FGHIRWY/LB1 |
Departure
| Time | 2026-05-07 22:56 |
|---|---|
| Airport | Boston Logan International Airport (KBOS) |
Arrival
| Time | 2026-05-08 00:35 |
|---|---|
| Airport | Detroit Metropolitan Wayne County Airport (KDTW) |
| Time | Latitude | Longitude | Altitude | Speed | Heading |
|---|---|---|---|---|---|
| 2026-05-07 22:11 | 42.36351 | -71.02076 | 19 ft | 0 kts | 4° |
| 2026-05-07 22:41 | 42.36350 | -71.02076 | 19 ft | 0 kts | 4° |
| 2026-05-07 22:41 | 42.36337 | -71.02077 | 19 ft | 2 kts | 4° |
| 2026-05-07 22:42 | 42.36322 | -71.02078 | 19 ft | 1 kts | 4° |
| 2026-05-07 22:42 | 42.36312 | -71.02080 | 19 ft | 1 kts | 347° |
| 2026-05-07 22:42 | 42.36301 | -71.02068 | 19 ft | 2 kts | 291° |
| 2026-05-07 22:42 | 42.36300 | -71.02052 | 19 ft | 0 kts | 252° |
| 2026-05-07 22:43 | 42.36303 | -71.02044 | 19 ft | 1 kts | 248° |
| 2026-05-07 22:43 | 42.36303 | -71.02042 | 19 ft | 0 kts | 248° |
| 2026-05-07 22:45 | 42.36301 | -71.02048 | 19 ft | 1 kts | 248° |
| 2026-05-07 22:45 | 42.36297 | -71.02063 | 19 ft | 2 kts | 249° |
| 2026-05-07 22:46 | 42.36292 | -71.02085 | 19 ft | 3 kts | 252° |
| 2026-05-07 22:46 | 42.36284 | -71.02119 | 19 ft | 5 kts | 254° |
| 2026-05-07 22:46 | 42.36268 | -71.02194 | 19 ft | 11 kts | 251° |
| 2026-05-07 22:46 | 42.36224 | -71.02286 | 19 ft | 12 kts | 242° |
| 2026-05-07 22:47 | 42.36160 | -71.02351 | 19 ft | 12 kts | 184° |
| 2026-05-07 22:47 | 42.36077 | -71.02313 | 19 ft | 13 kts | 149° |
| 2026-05-07 22:47 | 42.36016 | -71.02220 | 19 ft | 13 kts | 121° |
| 2026-05-07 22:47 | 42.35965 | -71.02106 | 20 ft | 14 kts | 121° |
| 2026-05-07 22:48 | 42.35914 | -71.01990 | 20 ft | 14 kts | 121° |
| 2026-05-07 22:48 | 42.35863 | -71.01868 | 21 ft | 14 kts | 114° |
| 2026-05-07 22:48 | 42.35837 | -71.01734 | 21 ft | 15 kts | 100° |
| 2026-05-07 22:48 | 42.35827 | -71.01607 | 22 ft | 11 kts | 72° |
| 2026-05-07 22:49 | 42.35893 | -71.01546 | 22 ft | 13 kts | 19° |
| 2026-05-07 22:49 | 42.35994 | -71.01498 | 21 ft | 17 kts | 20° |
| 2026-05-07 22:49 | 42.36119 | -71.01438 | 21 ft | 20 kts | 20° |
| 2026-05-07 22:49 | 42.36228 | -71.01385 | 20 ft | 13 kts | 19° |
| 2026-05-07 22:50 | 42.36304 | -71.01347 | 20 ft | 10 kts | 30° |
| 2026-05-07 22:50 | 42.36309 | -71.01258 | 20 ft | 11 kts | 121° |
| 2026-05-07 22:50 | 42.36265 | -71.01161 | 20 ft | 12 kts | 120° |
| 2026-05-07 22:50 | 42.36227 | -71.01050 | 19 ft | 13 kts | 114° |
| 2026-05-07 22:51 | 42.36188 | -71.00928 | 19 ft | 14 kts | 113° |
| 2026-05-07 22:51 | 42.36145 | -71.00796 | 19 ft | 15 kts | 114° |
| 2026-05-07 22:51 | 42.36103 | -71.00656 | 18 ft | 16 kts | 109° |
| 2026-05-07 22:51 | 42.36066 | -71.00504 | 18 ft | 17 kts | 108° |
| 2026-05-07 22:52 | 42.36026 | -71.00347 | 17 ft | 18 kts | 109° |
| 2026-05-07 22:52 | 42.35984 | -71.00182 | 16 ft | 18 kts | 110° |
| 2026-05-07 22:52 | 42.35920 | -71.00031 | 16 ft | 19 kts | 133° |
| 2026-05-07 22:52 | 42.35825 | -70.99904 | 16 ft | 19 kts | 135° |
| 2026-05-07 22:53 | 42.35731 | -70.99777 | 16 ft | 19 kts | 135° |
| 2026-05-07 22:53 | 42.35634 | -70.99648 | 15 ft | 19 kts | 135° |
| 2026-05-07 22:53 | 42.35538 | -70.99519 | 15 ft | 17 kts | 134° |
| 2026-05-07 22:53 | 42.35490 | -70.99393 | 15 ft | 14 kts | 85° |
| 2026-05-07 22:54 | 42.35509 | -70.99285 | 15 ft | 7 kts | 66° |
| 2026-05-07 22:54 | 42.35548 | -70.99272 | 15 ft | 4 kts | 329° |
| 2026-05-07 22:54 | 42.35568 | -70.99296 | 15 ft | 3 kts | 315° |
| 2026-05-07 22:54 | 42.35574 | -70.99303 | 15 ft | 0 kts | 315° |
| 2026-05-07 22:55 | 42.35574 | -70.99304 | 15 ft | 0 kts | 315° |
| 2026-05-07 22:55 | 42.35712 | -70.99490 | 15 ft | 63 kts | 315° |
| 2026-05-07 22:56 | 42.36189 | -71.00132 | 17 ft | 128 kts | 315° |
| 2026-05-07 22:56 | 42.36922 | -71.01115 | 290 ft | 155 kts | 314° |
| 2026-05-07 22:56 | 42.37680 | -71.02104 | 934 ft | 156 kts | 315° |
| 2026-05-07 22:56 | 42.38451 | -71.03103 | 1598 ft | 156 kts | 311° |
| 2026-05-07 22:57 | 42.39060 | -71.04334 | 2101 ft | 165 kts | 300° |
| 2026-05-07 22:57 | 42.39636 | -71.05783 | 2496 ft | 182 kts | 299° |
| 2026-05-07 22:57 | 42.40253 | -71.07326 | 2885 ft | 198 kts | 300° |
| 2026-05-07 22:57 | 42.41011 | -71.09009 | 3200 ft | 220 kts | 310° |
| 2026-05-07 22:58 | 42.42224 | -71.10334 | 3699 ft | 235 kts | 331° |
| 2026-05-07 22:58 | 42.43745 | -71.11234 | 4313 ft | 245 kts | 336° |
| 2026-05-07 22:58 | 42.45345 | -71.12104 | 4969 ft | 254 kts | 336° |
| 2026-05-07 22:58 | 42.46985 | -71.12991 | 5757 ft | 257 kts | 336° |
| 2026-05-07 22:59 | 42.48656 | -71.13897 | 6524 ft | 261 kts | 336° |
| 2026-05-07 22:59 | 42.50332 | -71.14803 | 7282 ft | 264 kts | 336° |
| 2026-05-07 22:59 | 42.52047 | -71.15654 | 8064 ft | 267 kts | 338° |
| 2026-05-07 22:59 | 42.53828 | -71.16465 | 8826 ft | 270 kts | 338° |
| 2026-05-07 23:00 | 42.55602 | -71.17267 | 9574 ft | 272 kts | 337° |
| 2026-05-07 23:00 | 42.57387 | -71.18073 | 10293 ft | 274 kts | 336° |
| 2026-05-07 23:00 | 42.59236 | -71.18916 | 10729 ft | 287 kts | 335° |
| 2026-05-07 23:00 | 42.61156 | -71.19795 | 11168 ft | 299 kts | 335° |
| 2026-05-07 23:01 | 42.63133 | -71.20692 | 11850 ft | 301 kts | 334° |
| 2026-05-07 23:01 | 42.65121 | -71.21595 | 12483 ft | 305 kts | 334° |
| 2026-05-07 23:01 | 42.67141 | -71.22514 | 13093 ft | 309 kts | 333° |
| 2026-05-07 23:01 | 42.69170 | -71.23440 | 13684 ft | 313 kts | 332° |
| 2026-05-07 23:02 | 42.71236 | -71.24386 | 14265 ft | 317 kts | 332° |
| 2026-05-07 23:02 | 42.73350 | -71.25355 | 14849 ft | 321 kts | 332° |
| 2026-05-07 23:02 | 42.75454 | -71.26383 | 15403 ft | 319 kts | 325° |
| 2026-05-07 23:02 | 42.77182 | -71.28110 | 15887 ft | 304 kts | 303° |
| 2026-05-07 23:03 | 42.78262 | -71.30456 | 16444 ft | 292 kts | 285° |
| 2026-05-07 23:03 | 42.78729 | -71.33118 | 17025 ft | 287 kts | 273° |
| 2026-05-07 23:03 | 42.79026 | -71.35786 | 17570 ft | 291 kts | 273° |
| 2026-05-07 23:03 | 42.79328 | -71.38514 | 18081 ft | 295 kts | 273° |
| 2026-05-07 23:04 | 42.79635 | -71.41296 | 18559 ft | 300 kts | 273° |
| 2026-05-07 23:04 | 42.79944 | -71.44078 | 19074 ft | 302 kts | 272° |
| 2026-05-07 23:04 | 42.80262 | -71.46926 | 19624 ft | 304 kts | 272° |
| 2026-05-07 23:04 | 42.80571 | -71.49749 | 20161 ft | 306 kts | 272° |
| 2026-05-07 23:05 | 42.80885 | -71.52608 | 20699 ft | 307 kts | 272° |
| 2026-05-07 23:05 | 42.81203 | -71.55499 | 21211 ft | 308 kts | 272° |
| 2026-05-07 23:05 | 42.81517 | -71.58357 | 21699 ft | 310 kts | 272° |
| 2026-05-07 23:05 | 42.81834 | -71.61247 | 22192 ft | 311 kts | 272° |
| 2026-05-07 23:06 | 42.82156 | -71.64171 | 22675 ft | 312 kts | 272° |
| 2026-05-07 23:06 | 42.82470 | -71.67059 | 23131 ft | 314 kts | 271° |
| 2026-05-07 23:06 | 42.82791 | -71.70022 | 23608 ft | 315 kts | 272° |
| 2026-05-07 23:06 | 42.83109 | -71.72942 | 24086 ft | 316 kts | 272° |
| 2026-05-07 23:07 | 42.83429 | -71.75906 | 24516 ft | 319 kts | 271° |
| 2026-05-07 23:07 | 42.83757 | -71.78928 | 24936 ft | 321 kts | 271° |
| 2026-05-07 23:07 | 42.84078 | -71.81930 | 25345 ft | 323 kts | 271° |
| 2026-05-07 23:07 | 42.84400 | -71.84919 | 25776 ft | 324 kts | 271° |
| 2026-05-07 23:08 | 42.84728 | -71.87981 | 26168 ft | 326 kts | 271° |
| 2026-05-07 23:08 | 42.85052 | -71.91010 | 26518 ft | 329 kts | 271° |
| 2026-05-07 23:08 | 42.85383 | -71.94122 | 26896 ft | 331 kts | 271° |
| 2026-05-07 23:08 | 42.85710 | -71.97205 | 27265 ft | 333 kts | 271° |
| 2026-05-07 23:09 | 42.86045 | -72.00352 | 27627 ft | 336 kts | 272° |
| 2026-05-07 23:09 | 42.86378 | -72.03503 | 27979 ft | 337 kts | 271° |
| 2026-05-07 23:09 | 42.86711 | -72.06651 | 28327 ft | 339 kts | 271° |
| 2026-05-07 23:09 | 42.87045 | -72.09824 | 28647 ft | 341 kts | 271° |
| 2026-05-07 23:10 | 42.87380 | -72.13036 | 28992 ft | 343 kts | 271° |
| 2026-05-07 23:10 | 42.87716 | -72.16232 | 29312 ft | 345 kts | 271° |
| 2026-05-07 23:10 | 42.88056 | -72.19490 | 29617 ft | 347 kts | 271° |
| 2026-05-07 23:10 | 42.88394 | -72.22732 | 29923 ft | 348 kts | 271° |
| 2026-05-07 23:11 | 42.88732 | -72.25996 | 30219 ft | 350 kts | 271° |
| 2026-05-07 23:11 | 42.89067 | -72.29240 | 30471 ft | 352 kts | 271° |
| 2026-05-07 23:11 | 42.89408 | -72.32567 | 30729 ft | 353 kts | 272° |
| 2026-05-07 23:11 | 42.89751 | -72.35883 | 30989 ft | 355 kts | 271° |
| 2026-05-07 23:12 | 42.90089 | -72.39185 | 31209 ft | 357 kts | 271° |
| 2026-05-07 23:12 | 42.90432 | -72.42534 | 31481 ft | 358 kts | 272° |
| 2026-05-07 23:12 | 42.90775 | -72.45907 | 31746 ft | 358 kts | 272° |
| 2026-05-07 23:12 | 42.91116 | -72.49252 | 31969 ft | 360 kts | 272° |
| 2026-05-07 23:13 | 42.91462 | -72.52651 | 32162 ft | 362 kts | 272° |
| 2026-05-07 23:13 | 42.91803 | -72.56029 | 32383 ft | 363 kts | 272° |
| 2026-05-07 23:13 | 42.92149 | -72.59457 | 32616 ft | 364 kts | 272° |
| 2026-05-07 23:13 | 42.92489 | -72.62853 | 32824 ft | 366 kts | 272° |
| 2026-05-07 23:14 | 42.92831 | -72.66297 | 33052 ft | 365 kts | 271° |
| 2026-05-07 23:14 | 42.93173 | -72.69688 | 33348 ft | 364 kts | 271° |
| 2026-05-07 23:14 | 42.93511 | -72.73088 | 33601 ft | 363 kts | 271° |
| 2026-05-07 23:14 | 42.93848 | -72.76490 | 33841 ft | 363 kts | 271° |
| 2026-05-07 23:15 | 42.94188 | -72.79906 | 34071 ft | 363 kts | 271° |
| 2026-05-07 23:15 | 42.94523 | -72.83308 | 34263 ft | 364 kts | 271° |
| 2026-05-07 23:15 | 42.94855 | -72.86696 | 34441 ft | 365 kts | 272° |
| 2026-05-07 23:15 | 42.95192 | -72.90140 | 34615 ft | 367 kts | 271° |
| 2026-05-07 23:16 | 42.95528 | -72.93591 | 34795 ft | 367 kts | 272° |
| 2026-05-07 23:16 | 42.95862 | -72.97034 | 34978 ft | 368 kts | 271° |
| 2026-05-07 23:16 | 42.96199 | -73.00498 | 35142 ft | 369 kts | 272° |
| 2026-05-07 23:16 | 42.96531 | -73.03924 | 35292 ft | 370 kts | 272° |
| 2026-05-07 23:17 | 42.96867 | -73.07423 | 35436 ft | 371 kts | 272° |
| 2026-05-07 23:17 | 42.97204 | -73.10909 | 35598 ft | 372 kts | 272° |
| 2026-05-07 23:17 | 42.97539 | -73.14404 | 35736 ft | 373 kts | 272° |
| 2026-05-07 23:18 | 42.98207 | -73.21442 | 35823 ft | 375 kts | 272° |
| 2026-05-07 23:18 | 42.98870 | -73.28442 | 35828 ft | 375 kts | 272° |
| 2026-05-07 23:19 | 42.99417 | -73.35506 | 35833 ft | 373 kts | 269° |
| 2026-05-07 23:19 | 42.99624 | -73.42545 | 35831 ft | 373 kts | 268° |
| 2026-05-07 23:20 | 42.99805 | -73.49592 | 35829 ft | 373 kts | 268° |
| 2026-05-07 23:20 | 42.99978 | -73.56660 | 35841 ft | 373 kts | 268° |
| 2026-05-07 23:21 | 43.00142 | -73.63689 | 35849 ft | 372 kts | 268° |
| 2026-05-07 23:21 | 43.00302 | -73.70725 | 35858 ft | 372 kts | 267° |
| 2026-05-07 23:22 | 43.00460 | -73.77765 | 35853 ft | 372 kts | 267° |
| 2026-05-07 23:22 | 43.00613 | -73.84825 | 35854 ft | 372 kts | 268° |
| 2026-05-07 23:23 | 43.00762 | -73.91839 | 35856 ft | 372 kts | 267° |
| 2026-05-07 23:23 | 43.00905 | -73.98902 | 35876 ft | 372 kts | 267° |
| 2026-05-07 23:24 | 43.01043 | -74.05939 | 35857 ft | 371 kts | 267° |
| 2026-05-07 23:24 | 43.01178 | -74.12940 | 35859 ft | 372 kts | 267° |
| 2026-05-07 23:25 | 43.01305 | -74.20007 | 35851 ft | 372 kts | 268° |
| 2026-05-07 23:25 | 43.01488 | -74.27055 | 35847 ft | 373 kts | 269° |
| 2026-05-07 23:26 | 43.01808 | -74.34116 | 35845 ft | 374 kts | 269° |
| 2026-05-07 23:26 | 43.02127 | -74.41159 | 35830 ft | 374 kts | 269° |
| 2026-05-07 23:27 | 43.02596 | -74.51801 | 35839 ft | 375 kts | 270° |
| 2026-05-07 23:27 | 43.02903 | -74.58862 | 35847 ft | 376 kts | 270° |
| 2026-05-07 23:28 | 43.03210 | -74.66060 | 35850 ft | 385 kts | 269° |
| 2026-05-07 23:28 | 43.03521 | -74.73425 | 35853 ft | 393 kts | 269° |
| 2026-05-07 23:29 | 43.03834 | -74.80926 | 35868 ft | 397 kts | 269° |
| 2026-05-07 23:29 | 43.04141 | -74.88439 | 35881 ft | 398 kts | 269° |
| 2026-05-07 23:30 | 43.04446 | -74.95920 | 35866 ft | 398 kts | 269° |
| 2026-05-07 23:30 | 43.04745 | -75.03480 | 35885 ft | 399 kts | 269° |
| 2026-05-07 23:31 | 43.05039 | -75.11027 | 35878 ft | 399 kts | 269° |
| 2026-05-07 23:31 | 43.05330 | -75.18597 | 35875 ft | 399 kts | 269° |
| 2026-05-07 23:32 | 43.05610 | -75.26112 | 35876 ft | 399 kts | 269° |
| 2026-05-07 23:32 | 43.05867 | -75.33681 | 35877 ft | 399 kts | 269° |
| 2026-05-07 23:33 | 43.06080 | -75.41273 | 35878 ft | 400 kts | 269° |
| 2026-05-07 23:33 | 43.06287 | -75.48830 | 35876 ft | 400 kts | 269° |
| 2026-05-07 23:34 | 43.06490 | -75.56397 | 35878 ft | 400 kts | 269° |
| 2026-05-07 23:34 | 43.06691 | -75.63964 | 35877 ft | 400 kts | 269° |
| 2026-05-07 23:35 | 43.06883 | -75.71497 | 35872 ft | 400 kts | 269° |
| 2026-05-07 23:35 | 43.07073 | -75.79076 | 35872 ft | 400 kts | 269° |
| 2026-05-07 23:36 | 43.07262 | -75.86711 | 35873 ft | 401 kts | 268° |
| 2026-05-07 23:36 | 43.07440 | -75.94241 | 35878 ft | 401 kts | 269° |
| 2026-05-07 23:37 | 43.07618 | -76.01878 | 35885 ft | 402 kts | 268° |
| 2026-05-07 23:37 | 43.07787 | -76.09495 | 35892 ft | 402 kts | 269° |
| 2026-05-07 23:38 | 43.07952 | -76.17069 | 35888 ft | 402 kts | 269° |
| 2026-05-07 23:38 | 43.08112 | -76.24686 | 35886 ft | 402 kts | 269° |
| 2026-05-07 23:39 | 43.08270 | -76.32336 | 35888 ft | 403 kts | 269° |
| 2026-05-07 23:39 | 43.08421 | -76.39970 | 35881 ft | 403 kts | 269° |
| 2026-05-07 23:40 | 43.08568 | -76.47613 | 35880 ft | 404 kts | 269° |
| 2026-05-07 23:40 | 43.08707 | -76.55282 | 35881 ft | 404 kts | 269° |
| 2026-05-07 23:41 | 43.08844 | -76.62926 | 35881 ft | 404 kts | 269° |
| 2026-05-07 23:41 | 43.08686 | -76.70564 | 35877 ft | 402 kts | 264° |
| 2026-05-07 23:42 | 43.08093 | -76.78130 | 35881 ft | 401 kts | 262° |
| 2026-05-07 23:42 | 43.07438 | -76.85719 | 35882 ft | 401 kts | 262° |
| 2026-05-07 23:43 | 43.06775 | -76.93270 | 35878 ft | 401 kts | 262° |
| 2026-05-07 23:43 | 43.06104 | -77.00813 | 35881 ft | 402 kts | 262° |
| 2026-05-07 23:44 | 43.05429 | -77.08349 | 35890 ft | 402 kts | 262° |
| 2026-05-07 23:44 | 43.04746 | -77.15915 | 35891 ft | 403 kts | 262° |
| 2026-05-07 23:45 | 43.04056 | -77.23501 | 35906 ft | 403 kts | 262° |
| 2026-05-07 23:45 | 43.03360 | -77.31079 | 35901 ft | 403 kts | 262° |
| 2026-05-07 23:46 | 43.02663 | -77.38626 | 35897 ft | 403 kts | 262° |
| 2026-05-07 23:46 | 43.01957 | -77.46208 | 35903 ft | 404 kts | 262° |
| 2026-05-07 23:47 | 43.01247 | -77.53778 | 35899 ft | 404 kts | 262° |
| 2026-05-07 23:47 | 43.00531 | -77.61341 | 35905 ft | 404 kts | 262° |
| 2026-05-07 23:48 | 42.99806 | -77.68956 | 35911 ft | 404 kts | 262° |
| 2026-05-07 23:48 | 42.99094 | -77.76382 | 35903 ft | 405 kts | 262° |
| 2026-05-07 23:49 | 42.98365 | -77.83950 | 35902 ft | 405 kts | 262° |
| 2026-05-07 23:49 | 42.97622 | -77.91587 | 35901 ft | 406 kts | 262° |
| 2026-05-07 23:50 | 42.96879 | -77.99162 | 35901 ft | 406 kts | 262° |
| 2026-05-07 23:50 | 42.96129 | -78.06803 | 35900 ft | 406 kts | 262° |
| 2026-05-07 23:51 | 42.95373 | -78.14414 | 35897 ft | 406 kts | 262° |
| 2026-05-07 23:51 | 42.94618 | -78.21975 | 35893 ft | 405 kts | 262° |
| 2026-05-07 23:52 | 42.93852 | -78.29578 | 35891 ft | 405 kts | 262° |
| 2026-05-07 23:52 | 42.93084 | -78.37154 | 35892 ft | 405 kts | 262° |
| 2026-05-07 23:53 | 42.92310 | -78.44743 | 35880 ft | 405 kts | 262° |
| 2026-05-07 23:53 | 42.91533 | -78.52307 | 35882 ft | 406 kts | 262° |
| 2026-05-07 23:54 | 42.90745 | -78.59914 | 35887 ft | 406 kts | 262° |
| 2026-05-07 23:54 | 42.89955 | -78.67522 | 35894 ft | 407 kts | 262° |
| 2026-05-07 23:55 | 42.89177 | -78.74944 | 35888 ft | 407 kts | 262° |
| 2026-05-07 23:55 | 42.88407 | -78.82264 | 35898 ft | 407 kts | 262° |
| 2026-05-07 23:56 | 42.87599 | -78.89884 | 35896 ft | 407 kts | 262° |
| 2026-05-07 23:56 | 42.86785 | -78.97495 | 35893 ft | 407 kts | 262° |
| 2026-05-07 23:57 | 42.85970 | -79.05086 | 35892 ft | 407 kts | 262° |
| 2026-05-07 23:57 | 42.85148 | -79.12669 | 35896 ft | 406 kts | 262° |
| 2026-05-07 23:58 | 42.84322 | -79.20254 | 35889 ft | 408 kts | 262° |
| 2026-05-07 23:58 | 42.83492 | -79.27843 | 35891 ft | 406 kts | 262° |
| 2026-05-07 23:59 | 42.82655 | -79.35443 | 35890 ft | 407 kts | 262° |
| 2026-05-07 23:59 | 42.81811 | -79.43041 | 35887 ft | 406 kts | 262° |
| 2026-05-08 00:00 | 42.80970 | -79.50597 | 35890 ft | 406 kts | 262° |
| 2026-05-08 00:00 | 42.80117 | -79.58182 | 35890 ft | 405 kts | 262° |
| 2026-05-08 00:01 | 42.79265 | -79.65724 | 35893 ft | 406 kts | 262° |
| 2026-05-08 00:01 | 42.78436 | -79.73260 | 35893 ft | 405 kts | 263° |
| 2026-05-08 00:02 | 42.77797 | -79.80873 | 35893 ft | 405 kts | 264° |
| 2026-05-08 00:02 | 42.77161 | -79.88451 | 35898 ft | 405 kts | 264° |
| 2026-05-08 00:03 | 42.76522 | -79.96050 | 35907 ft | 404 kts | 264° |
| 2026-05-08 00:03 | 42.75881 | -80.03588 | 35916 ft | 404 kts | 264° |
| 2026-05-08 00:04 | 42.75234 | -80.11152 | 35915 ft | 403 kts | 264° |
| 2026-05-08 00:04 | 42.74587 | -80.18675 | 35780 ft | 404 kts | 264° |
| 2026-05-08 00:05 | 42.74260 | -80.22438 | 35359 ft | 400 kts | 264° |
| 2026-05-08 00:05 | 42.73936 | -80.26155 | 35014 ft | 391 kts | 264° |
| 2026-05-08 00:05 | 42.73619 | -80.29763 | 34718 ft | 387 kts | 264° |
| 2026-05-08 00:05 | 42.73299 | -80.33414 | 34408 ft | 392 kts | 264° |
| 2026-05-08 00:06 | 42.73010 | -80.37075 | 34074 ft | 394 kts | 265° |
| 2026-05-08 00:06 | 42.72827 | -80.40787 | 33703 ft | 394 kts | 267° |
| 2026-05-08 00:06 | 42.72668 | -80.44502 | 33327 ft | 393 kts | 266° |
| 2026-05-08 00:06 | 42.72510 | -80.48177 | 32977 ft | 394 kts | 267° |
| 2026-05-08 00:07 | 42.72347 | -80.51897 | 32629 ft | 395 kts | 267° |
| 2026-05-08 00:07 | 42.72185 | -80.55638 | 32292 ft | 397 kts | 266° |
| 2026-05-08 00:07 | 42.72023 | -80.59340 | 31953 ft | 397 kts | 266° |
| 2026-05-08 00:07 | 42.71858 | -80.63079 | 31608 ft | 398 kts | 267° |
| 2026-05-08 00:08 | 42.71690 | -80.66848 | 31261 ft | 400 kts | 266° |
| 2026-05-08 00:08 | 42.71523 | -80.70589 | 30914 ft | 400 kts | 266° |
| 2026-05-08 00:08 | 42.71357 | -80.74331 | 30565 ft | 401 kts | 266° |
| 2026-05-08 00:08 | 42.71184 | -80.78133 | 30209 ft | 403 kts | 266° |
| 2026-05-08 00:09 | 42.71012 | -80.81892 | 29867 ft | 404 kts | 266° |
| 2026-05-08 00:09 | 42.70837 | -80.85683 | 29543 ft | 396 kts | 267° |
| 2026-05-08 00:09 | 42.70669 | -80.89332 | 29259 ft | 388 kts | 267° |
| 2026-05-08 00:09 | 42.70500 | -80.92960 | 28978 ft | 380 kts | 267° |
| 2026-05-08 00:10 | 42.70335 | -80.96471 | 28705 ft | 372 kts | 267° |
| 2026-05-08 00:10 | 42.70170 | -80.99949 | 28425 ft | 365 kts | 267° |
| 2026-05-08 00:10 | 42.70009 | -81.03351 | 28145 ft | 364 kts | 267° |
| 2026-05-08 00:10 | 42.69847 | -81.06781 | 27851 ft | 363 kts | 267° |
| 2026-05-08 00:11 | 42.69684 | -81.10165 | 27534 ft | 362 kts | 267° |
| 2026-05-08 00:11 | 42.69518 | -81.13575 | 27171 ft | 361 kts | 268° |
| 2026-05-08 00:11 | 42.69353 | -81.16937 | 26839 ft | 359 kts | 268° |
| 2026-05-08 00:11 | 42.69186 | -81.20342 | 26507 ft | 359 kts | 268° |
| 2026-05-08 00:12 | 42.69022 | -81.23702 | 26162 ft | 358 kts | 268° |
| 2026-05-08 00:12 | 42.68854 | -81.27060 | 25834 ft | 358 kts | 268° |
| 2026-05-08 00:12 | 42.68686 | -81.30410 | 25431 ft | 357 kts | 268° |
| 2026-05-08 00:12 | 42.68518 | -81.33740 | 25082 ft | 355 kts | 268° |
| 2026-05-08 00:13 | 42.68270 | -81.37067 | 24717 ft | 355 kts | 266° |
| 2026-05-08 00:13 | 42.67991 | -81.40406 | 24341 ft | 354 kts | 266° |
| 2026-05-08 00:13 | 42.67717 | -81.43666 | 23954 ft | 352 kts | 266° |
| 2026-05-08 00:13 | 42.67437 | -81.46982 | 23547 ft | 350 kts | 266° |
| 2026-05-08 00:14 | 42.67160 | -81.50234 | 23144 ft | 348 kts | 266° |
| 2026-05-08 00:14 | 42.66881 | -81.53498 | 22748 ft | 346 kts | 266° |
| 2026-05-08 00:14 | 42.66607 | -81.56695 | 22346 ft | 344 kts | 266° |
| 2026-05-08 00:14 | 42.66330 | -81.59902 | 21952 ft | 341 kts | 266° |
| 2026-05-08 00:15 | 42.66058 | -81.63067 | 21557 ft | 340 kts | 266° |
| 2026-05-08 00:15 | 42.65780 | -81.66270 | 21149 ft | 338 kts | 266° |
| 2026-05-08 00:15 | 42.65508 | -81.69400 | 20753 ft | 336 kts | 266° |
| 2026-05-08 00:15 | 42.65233 | -81.72563 | 20348 ft | 335 kts | 266° |
| 2026-05-08 00:16 | 42.64969 | -81.75582 | 19962 ft | 332 kts | 266° |
| 2026-05-08 00:16 | 42.64696 | -81.78697 | 19569 ft | 331 kts | 266° |
| 2026-05-08 00:16 | 42.64426 | -81.81776 | 19170 ft | 329 kts | 266° |
| 2026-05-08 00:16 | 42.64156 | -81.84824 | 18768 ft | 327 kts | 266° |
| 2026-05-08 00:17 | 42.63885 | -81.87876 | 18378 ft | 325 kts | 266° |
| 2026-05-08 00:17 | 42.63616 | -81.90903 | 17979 ft | 323 kts | 266° |
| 2026-05-08 00:17 | 42.63346 | -81.93928 | 17578 ft | 320 kts | 266° |
| 2026-05-08 00:17 | 42.63083 | -81.96873 | 17189 ft | 316 kts | 266° |
| 2026-05-08 00:18 | 42.62817 | -81.99837 | 16791 ft | 314 kts | 266° |
| 2026-05-08 00:18 | 42.62554 | -82.02764 | 16398 ft | 312 kts | 266° |
| 2026-05-08 00:18 | 42.62294 | -82.05656 | 16008 ft | 309 kts | 266° |
| 2026-05-08 00:18 | 42.62034 | -82.08531 | 15616 ft | 306 kts | 266° |
| 2026-05-08 00:19 | 42.61777 | -82.11367 | 15234 ft | 304 kts | 266° |
| 2026-05-08 00:19 | 42.61520 | -82.14199 | 14834 ft | 302 kts | 266° |
| 2026-05-08 00:19 | 42.61265 | -82.17001 | 14445 ft | 299 kts | 266° |
| 2026-05-08 00:19 | 42.61013 | -82.19764 | 14059 ft | 296 kts | 266° |
| 2026-05-08 00:20 | 42.60758 | -82.22546 | 13662 ft | 293 kts | 266° |
| 2026-05-08 00:20 | 42.60509 | -82.25254 | 13278 ft | 292 kts | 266° |
| 2026-05-08 00:20 | 42.60258 | -82.27982 | 12892 ft | 291 kts | 266° |
| 2026-05-08 00:20 | 42.60007 | -82.30679 | 12500 ft | 289 kts | 266° |
| 2026-05-08 00:21 | 42.59758 | -82.33369 | 12114 ft | 288 kts | 266° |
| 2026-05-08 00:21 | 42.59509 | -82.36049 | 11727 ft | 287 kts | 266° |
| 2026-05-08 00:21 | 42.59262 | -82.38712 | 11380 ft | 284 kts | 266° |
| 2026-05-08 00:21 | 42.58900 | -82.41378 | 11180 ft | 286 kts | 260° |
| 2026-05-08 00:22 | 42.58322 | -82.43948 | 10971 ft | 288 kts | 255° |
| 2026-05-08 00:22 | 42.57576 | -82.46471 | 10766 ft | 289 kts | 252° |
| 2026-05-08 00:22 | 42.56804 | -82.48985 | 10612 ft | 288 kts | 252° |
| 2026-05-08 00:22 | 42.56031 | -82.51488 | 10478 ft | 288 kts | 252° |
| 2026-05-08 00:23 | 42.55263 | -82.53973 | 10338 ft | 287 kts | 252° |
| 2026-05-08 00:23 | 42.54493 | -82.56464 | 10209 ft | 287 kts | 252° |
| 2026-05-08 00:23 | 42.53722 | -82.58953 | 10088 ft | 287 kts | 252° |
| 2026-05-08 00:23 | 42.52947 | -82.61455 | 9957 ft | 286 kts | 252° |
| 2026-05-08 00:24 | 42.52181 | -82.63921 | 9930 ft | 280 kts | 252° |
| 2026-05-08 00:24 | 42.51453 | -82.66252 | 9924 ft | 263 kts | 252° |
| 2026-05-08 00:24 | 42.50752 | -82.68497 | 9956 ft | 255 kts | 252° |
| 2026-05-08 00:24 | 42.50060 | -82.70684 | 9971 ft | 255 kts | 252° |
| 2026-05-08 00:25 | 42.49351 | -82.72910 | 9980 ft | 255 kts | 251° |
| 2026-05-08 00:25 | 42.48658 | -82.75116 | 9961 ft | 251 kts | 254° |
| 2026-05-08 00:25 | 42.48083 | -82.77308 | 9656 ft | 250 kts | 254° |
| 2026-05-08 00:25 | 42.47455 | -82.79522 | 9236 ft | 252 kts | 253° |
| 2026-05-08 00:26 | 42.46831 | -82.81719 | 8868 ft | 252 kts | 253° |
| 2026-05-08 00:26 | 42.46213 | -82.83927 | 8509 ft | 252 kts | 253° |
| 2026-05-08 00:26 | 42.45597 | -82.86155 | 8142 ft | 252 kts | 253° |
| 2026-05-08 00:26 | 42.44996 | -82.88363 | 7797 ft | 251 kts | 253° |
| 2026-05-08 00:27 | 42.44405 | -82.90568 | 7448 ft | 251 kts | 253° |
| 2026-05-08 00:27 | 42.43819 | -82.92787 | 7100 ft | 250 kts | 253° |
| 2026-05-08 00:27 | 42.43243 | -82.95013 | 6752 ft | 250 kts | 253° |
| 2026-05-08 00:27 | 42.42688 | -82.97210 | 6418 ft | 249 kts | 253° |
| 2026-05-08 00:28 | 42.42142 | -82.99419 | 6067 ft | 250 kts | 253° |
| 2026-05-08 00:28 | 42.41589 | -83.01659 | 5717 ft | 250 kts | 253° |
| 2026-05-08 00:28 | 42.41045 | -83.03857 | 5395 ft | 249 kts | 253° |
| 2026-05-08 00:28 | 42.40493 | -83.06097 | 5070 ft | 248 kts | 253° |
| 2026-05-08 00:29 | 42.39992 | -83.08274 | 4907 ft | 240 kts | 257° |
| 2026-05-08 00:29 | 42.39619 | -83.10421 | 4756 ft | 232 kts | 259° |
| 2026-05-08 00:29 | 42.39281 | -83.12524 | 4608 ft | 225 kts | 259° |
| 2026-05-08 00:29 | 42.38960 | -83.14558 | 4474 ft | 219 kts | 259° |
| 2026-05-08 00:30 | 42.38560 | -83.16519 | 4333 ft | 213 kts | 253° |
| 2026-05-08 00:30 | 42.38073 | -83.18358 | 4194 ft | 207 kts | 252° |
| 2026-05-08 00:30 | 42.37592 | -83.20167 | 4046 ft | 200 kts | 252° |
| 2026-05-08 00:30 | 42.36978 | -83.21805 | 3761 ft | 201 kts | 234° |
| 2026-05-08 00:31 | 42.35910 | -83.23035 | 3514 ft | 198 kts | 218° |
| 2026-05-08 00:31 | 42.34755 | -83.23985 | 3353 ft | 188 kts | 214° |
| 2026-05-08 00:31 | 42.33634 | -83.24818 | 3250 ft | 183 kts | 213° |
| 2026-05-08 00:31 | 42.32527 | -83.25627 | 3013 ft | 181 kts | 213° |
| 2026-05-08 00:32 | 42.31438 | -83.26423 | 2766 ft | 173 kts | 213° |
| 2026-05-08 00:32 | 42.30412 | -83.27175 | 2526 ft | 162 kts | 213° |
| 2026-05-08 00:32 | 42.29437 | -83.27893 | 2312 ft | 157 kts | 214° |
| 2026-05-08 00:32 | 42.28482 | -83.28599 | 2121 ft | 156 kts | 213° |
| 2026-05-08 00:33 | 42.27542 | -83.29292 | 1916 ft | 149 kts | 214° |
| 2026-05-08 00:33 | 42.26681 | -83.29923 | 1698 ft | 135 kts | 214° |
| 2026-05-08 00:33 | 42.25870 | -83.30522 | 1524 ft | 133 kts | 214° |
| 2026-05-08 00:33 | 42.25053 | -83.31126 | 1358 ft | 133 kts | 213° |
| 2026-05-08 00:34 | 42.24233 | -83.31732 | 1181 ft | 134 kts | 213° |
| 2026-05-08 00:34 | 42.23418 | -83.32334 | 999 ft | 134 kts | 212° |
| 2026-05-08 00:34 | 42.22592 | -83.32940 | 817 ft | 135 kts | 212° |
| 2026-05-08 00:34 | 42.21769 | -83.33537 | 661 ft | 134 kts | 212° |
| 2026-05-08 00:35 | 42.21003 | -83.34121 | 637 ft | 111 kts | 210° |
| 2026-05-08 00:35 | 42.20481 | -83.34513 | 637 ft | 61 kts | 210° |
| 2026-05-08 00:35 | 42.20176 | -83.34727 | 637 ft | 36 kts | 209° |
| 2026-05-08 00:35 | 42.20087 | -83.34884 | 637 ft | 18 kts | 267° |
| 2026-05-08 00:36 | 42.20086 | -83.35049 | 637 ft | 17 kts | 269° |
| 2026-05-08 00:36 | 42.20083 | -83.35204 | 638 ft | 16 kts | 268° |
| 2026-05-08 00:36 | 42.20081 | -83.35350 | 639 ft | 15 kts | 270° |
| 2026-05-08 00:36 | 42.20078 | -83.35488 | 639 ft | 14 kts | 269° |
| 2026-05-08 00:37 | 42.20076 | -83.35633 | 640 ft | 17 kts | 269° |
| 2026-05-08 00:37 | 42.20074 | -83.35794 | 640 ft | 16 kts | 269° |
| 2026-05-08 00:37 | 42.20070 | -83.35947 | 641 ft | 16 kts | 268° |
| 2026-05-08 00:38 | 42.20079 | -83.36241 | 641 ft | 15 kts | 280° |
| 2026-05-08 00:38 | 42.20099 | -83.36376 | 641 ft | 13 kts | 284° |
| 2026-05-08 00:38 | 42.20175 | -83.36423 | 641 ft | 13 kts | 9° |
| 2026-05-08 00:38 | 42.20269 | -83.36398 | 642 ft | 13 kts | 15° |
| 2026-05-08 00:39 | 42.20359 | -83.36347 | 642 ft | 14 kts | 28° |
| 2026-05-08 00:39 | 42.20450 | -83.36279 | 642 ft | 15 kts | 29° |
| 2026-05-08 00:39 | 42.20544 | -83.36211 | 642 ft | 15 kts | 31° |
| 2026-05-08 00:39 | 42.20636 | -83.36141 | 642 ft | 15 kts | 28° |
| 2026-05-08 00:40 | 42.20731 | -83.36073 | 642 ft | 15 kts | 29° |
| 2026-05-08 00:40 | 42.20826 | -83.36003 | 642 ft | 15 kts | 28° |
| 2026-05-08 00:40 | 42.20926 | -83.35928 | 642 ft | 17 kts | 30° |
| 2026-05-08 00:40 | 42.21035 | -83.35848 | 642 ft | 18 kts | 28° |
| 2026-05-08 00:41 | 42.21153 | -83.35763 | 642 ft | 19 kts | 28° |
| 2026-05-08 00:41 | 42.21275 | -83.35671 | 642 ft | 20 kts | 29° |
| 2026-05-08 00:41 | 42.21396 | -83.35583 | 642 ft | 18 kts | 28° |
| 2026-05-08 00:41 | 42.21491 | -83.35513 | 642 ft | 14 kts | 29° |
| 2026-05-08 00:42 | 42.21545 | -83.35432 | 642 ft | 7 kts | 75° |
| 2026-05-08 00:42 | 42.21549 | -83.35394 | 642 ft | 4 kts | 89° |
| 2026-05-08 00:42 | 42.21549 | -83.35346 | 641 ft | 5 kts | 90° |
| 2026-05-08 00:42 | 42.21549 | -83.35284 | 641 ft | 8 kts | 88° |
| 2026-05-08 00:43 | 42.21526 | -83.35217 | 641 ft | 8 kts | 160° |
| 2026-05-08 00:43 | 42.21473 | -83.35214 | 641 ft | 4 kts | 189° |
| 2026-05-08 00:43 | 42.21449 | -83.35221 | 641 ft | 5 kts | 195° |
| 2026-05-08 00:43 | 42.21425 | -83.35260 | 641 ft | 3 kts | 274° |
| 2026-05-08 00:44 | 42.21431 | -83.35282 | 641 ft | 2 kts | 294° |
| 2026-05-08 00:44 | 42.21435 | -83.35294 | 641 ft | 0 kts | 297° |
| 2026-05-08 00:44 | 42.21437 | -83.35299 | 641 ft | 0 kts | 297° |